Time;durP1;ratioP1;P1;durP2;ratioP2;P2;SDS_P1;SDS_P2;PMS_P1;PMS_P2;Temp;Humidity;BMP_temperature;BMP_pressure;BME280_temperature;BME280_humidity;BME280_pressure;Samples;Min_cycle;Max_cycle;Signal;HPM_P1;HPM_P2
2023/01/08 00:01:48;;;;;;;3.55;1.50;;;9.90;99.90;;;;;;5041002;28;20087;-38
2023/01/08 00:04:16;;;;;;;2.70;1.45;;;10.00;99.90;;;;;;5041833;28;20033;-38
2023/01/08 00:06:42;;;;;;;4.15;1.13;;;10.00;99.90;;;;;;5048354;28;20541;-37
2023/01/08 00:09:09;;;;;;;2.33;1.20;;;9.90;99.90;;;;;;5049507;28;20107;-45
2023/01/08 00:11:35;;;;;;;3.60;1.55;;;9.90;99.90;;;;;;5043542;28;20758;-37
2023/01/08 00:14:01;;;;;;;3.38;1.50;;;9.90;99.90;;;;;;5033696;28;20037;-37
2023/01/08 00:16:27;;;;;;;2.72;1.40;;;9.90;99.90;;;;;;5039355;28;20161;-40
2023/01/08 00:18:52;;;;;;;3.20;1.20;;;9.90;99.90;;;;;;5042513;28;20064;-37
2023/01/08 00:21:19;;;;;;;3.88;1.42;;;9.90;99.90;;;;;;5044319;28;20439;-36
2023/01/08 00:23:45;;;;;;;2.00;1.20;;;9.90;99.90;;;;;;5039476;28;20043;-37
2023/01/08 00:26:12;;;;;;;4.13;1.58;;;9.90;99.90;;;;;;5040229;28;20036;-36
2023/01/08 00:28:38;;;;;;;2.38;1.10;;;9.90;99.90;;;;;;5016907;28;20044;-39
2023/01/08 00:31:10;;;;;;;1.95;1.05;;;9.90;99.90;;;;;;5039633;28;20064;-40
2023/01/08 00:33:35;;;;;;;3.20;1.25;;;9.90;99.90;;;;;;5024062;28;20044;-38
2023/01/08 00:36:14;;;;;;;2.53;1.02;;;9.90;99.90;;;;;;5045434;28;20445;-37
2023/01/08 00:38:40;;;;;;;2.88;1.10;;;10.00;99.90;;;;;;5021683;28;20042;-36
2023/01/08 00:41:06;;;;;;;4.25;1.42;;;10.00;99.90;;;;;;5052865;28;20039;-36
2023/01/08 00:43:32;;;;;;;3.15;0.63;;;10.10;99.90;;;;;;5045497;28;20517;-36
2023/01/08 00:45:58;;;;;;;2.15;0.70;;;10.10;99.90;;;;;;5041867;28;20044;-37
2023/01/08 00:48:24;;;;;;;3.22;0.80;;;10.10;99.90;;;;;;5044802;28;20033;-36
2023/01/08 00:50:50;;;;;;;2.83;0.98;;;10.00;99.90;;;;;;5047247;28;20090;-38
2023/01/08 00:53:17;;;;;;;2.15;0.40;;;10.00;99.90;;;;;;5045334;28;20076;-37
2023/01/08 00:55:43;;;;;;;2.25;0.50;;;10.00;99.90;;;;;;5047946;28;20041;-37
2023/01/08 00:58:08;;;;;;;5.22;0.82;;;9.80;99.90;;;;;;5045001;28;20041;-38
2023/01/08 01:00:34;;;;;;;1.67;0.43;;;9.70;99.90;;;;;;5047858;28;20292;-36
2023/01/08 01:03:00;;;;;;;1.58;0.40;;;9.60;99.90;;;;;;5039486;28;20144;-39
2023/01/08 01:05:25;;;;;;;1.85;0.40;;;9.50;99.90;;;;;;5045569;28;20033;-37
2023/01/08 01:07:51;;;;;;;1.45;0.50;;;9.50;99.90;;;;;;5030157;28;20441;-36
2023/01/08 01:10:17;;;;;;;2.05;0.30;;;9.40;99.90;;;;;;5045094;28;20041;-38
2023/01/08 01:12:43;;;;;;;3.42;0.57;;;9.30;99.90;;;;;;5046645;28;20494;-36
2023/01/08 01:15:13;;;;;;;4.18;0.60;;;9.30;99.90;;;;;;5044589;28;20502;-38
2023/01/08 01:17:40;;;;;;;4.63;0.35;;;9.20;99.90;;;;;;5047410;28;20079;-37
2023/01/08 01:20:08;;;;;;;2.30;0.30;;;9.10;99.90;;;;;;5047205;28;20552;-37
2023/01/08 01:22:35;;;;;;;2.33;0.30;;;9.10;99.90;;;;;;5043931;28;20043;-38
2023/01/08 01:25:01;;;;;;;2.95;0.60;;;9.10;99.90;;;;;;5041937;28;20541;-37
2023/01/08 01:27:27;;;;;;;3.72;0.50;;;9.00;99.90;;;;;;5046209;28;20116;-36
2023/01/08 01:29:53;;;;;;;2.70;0.40;;;9.00;99.90;;;;;;5040331;28;20037;-37
2023/01/08 01:32:19;;;;;;;5.63;0.77;;;8.90;99.90;;;;;;5044198;28;20045;-37
2023/01/08 01:34:44;;;;;;;4.05;0.65;;;8.90;99.90;;;;;;5042003;28;20570;-36
2023/01/08 01:37:14;;;;;;;3.28;0.55;;;8.80;99.90;;;;;;5044275;28;20394;-39
2023/01/08 01:39:42;;;;;;;4.85;0.57;;;8.70;99.90;;;;;;5052148;28;20048;-38
2023/01/08 01:45:02;;;;;;;6.25;0.50;;;8.60;99.90;;;;;;5045583;28;20413;-38
2023/01/08 01:47:36;;;;;;;5.90;1.02;;;8.60;99.90;;;;;;5043041;28;20056;-45
2023/01/08 01:50:15;;;;;;;4.80;0.90;;;8.60;99.90;;;;;;5029177;28;20040;-46
2023/01/08 01:52:55;;;;;;;6.95;0.60;;;8.60;99.90;;;;;;5043077;28;20065;-37
2023/01/08 01:55:20;;;;;;;5.38;0.60;;;8.60;99.90;;;;;;5049026;28;20545;-38
2023/01/08 01:57:56;;;;;;;4.25;0.73;;;8.60;99.90;;;;;;5047419;28;20047;-37
2023/01/08 02:00:23;;;;;;;6.55;0.75;;;8.60;99.90;;;;;;5048995;28;20505;-38
2023/01/08 02:02:49;;;;;;;3.50;0.63;;;8.50;99.90;;;;;;5029090;28;20084;-38
2023/01/08 02:05:16;;;;;;;10.10;0.73;;;8.50;99.90;;;;;;5049002;28;20029;-37
2023/01/08 02:07:59;;;;;;;6.65;1.02;;;8.50;99.90;;;;;;5052129;28;20108;-38
2023/01/08 02:10:52;;;;;;;7.68;0.50;;;8.50;99.90;;;;;;5046882;28;20033;-36
2023/01/08 02:13:32;;;;;;;3.38;0.52;;;8.50;99.90;;;;;;5049117;28;20503;-37
2023/01/08 02:16:08;;;;;;;5.50;1.45;;;8.50;99.90;;;;;;5046749;28;20049;-36
2023/01/08 02:18:49;;;;;;;7.20;0.60;;;8.50;99.90;;;;;;5051202;28;20045;-36
2023/01/08 02:21:26;;;;;;;7.35;0.85;;;8.50;99.90;;;;;;5044329;28;20072;-37
2023/01/08 02:24:19;;;;;;;5.85;1.48;;;8.50;99.90;;;;;;5043949;28;20119;-37
2023/01/08 02:26:47;;;;;;;1.65;0.40;;;8.50;99.90;;;;;;5048572;28;20409;-39
2023/01/08 02:29:20;;;;;;;9.25;0.70;;;8.50;99.90;;;;;;5050427;28;20033;-36
2023/01/08 02:31:46;;;;;;;8.88;0.93;;;8.40;99.90;;;;;;5049976;28;20502;-37
2023/01/08 02:34:12;;;;;;;5.72;0.60;;;8.40;99.90;;;;;;5050309;28;20529;-37
2023/01/08 02:36:42;;;;;;;3.55;0.45;;;8.40;99.90;;;;;;5052068;28;20068;-37
2023/01/08 02:39:30;;;;;;;3.95;0.75;;;8.40;99.90;;;;;;5048676;28;20043;-36
2023/01/08 02:42:19;;;;;;;4.53;0.60;;;8.30;99.90;;;;;;5049697;28;20044;-36
2023/01/08 02:44:54;;;;;;;5.43;0.85;;;8.30;99.90;;;;;;5046709;28;20036;-37
2023/01/08 02:47:42;;;;;;;3.28;0.80;;;8.30;99.90;;;;;;5050733;28;20510;-36
2023/01/08 02:50:47;;;;;;;2.83;0.75;;;8.30;99.90;;;;;;5044187;28;20037;-36
2023/01/08 02:53:25;;;;;;;3.58;0.75;;;8.30;99.90;;;;;;5046112;28;20052;-37
2023/01/08 02:55:57;;;;;;;3.83;0.80;;;8.30;99.90;;;;;;5045665;28;20036;-36
2023/01/08 02:58:24;;;;;;;;;;;8.30;99.90;;;;;;5049134;28;20033;-36
2023/01/08 03:00:52;;;;;;;2.42;0.70;;;8.30;99.90;;;;;;5052105;28;19924;-37
2023/01/08 03:03:26;;;;;;;4.82;0.65;;;8.30;99.90;;;;;;5047364;28;20047;-37
2023/01/08 03:06:05;;;;;;;4.47;0.90;;;8.30;99.90;;;;;;5050168;28;20144;-37
2023/01/08 03:08:34;;;;;;;2.28;0.73;;;8.30;99.90;;;;;;5028285;28;20441;-36
2023/01/08 03:11:09;;;;;;;3.25;1.00;;;8.40;99.90;;;;;;5046716;28;20094;-36
2023/01/08 03:14:03;;;;;;;2.55;1.08;;;8.40;99.90;;;;;;5049931;28;20044;-37
2023/01/08 03:16:40;;;;;;;3.88;1.48;;;8.40;99.90;;;;;;5046336;28;20072;-37
2023/01/08 03:19:18;;;;;;;2.65;1.10;;;8.50;99.90;;;;;;5052404;28;20781;-37
2023/01/08 03:21:45;;;;;;;2.22;1.00;;;8.50;99.90;;;;;;5054672;28;20568;-39
2023/01/08 03:24:23;;;;;;;3.38;1.13;;;8.50;99.90;;;;;;5044511;28;20138;-37
2023/01/08 03:26:50;;;;;;;3.15;1.30;;;8.50;99.90;;;;;;5041344;28;20686;-38
2023/01/08 03:29:19;;;;;;;4.35;1.60;;;8.50;99.90;;;;;;5048899;28;20035;-36
2023/01/08 03:31:46;;;;;;;2.22;1.30;;;8.50;99.90;;;;;;5043327;28;20083;-37
2023/01/08 03:34:14;;;;;;;4.18;1.50;;;8.50;99.90;;;;;;5045429;28;20084;-37
2023/01/08 03:36:45;;;;;;;4.13;1.88;;;8.60;99.90;;;;;;5047672;28;20086;-37
2023/01/08 03:39:19;;;;;;;2.80;1.33;;;8.50;99.90;;;;;;5048175;28;20128;-36
2023/01/08 03:41:45;;;;;;;2.75;1.40;;;8.60;99.90;;;;;;5046323;28;20049;-39
2023/01/08 03:44:11;;;;;;;3.38;1.40;;;8.60;99.90;;;;;;5046640;28;20405;-38
2023/01/08 03:46:41;;;;;;;4.78;1.40;;;8.70;99.90;;;;;;5048058;28;20041;-37
2023/01/08 03:49:07;;;;;;;3.03;1.40;;;8.70;99.90;;;;;;5049024;28;20041;-39
2023/01/08 03:51:41;;;;;;;5.57;1.45;;;8.70;99.90;;;;;;5054890;28;20066;-36
2023/01/08 03:54:11;;;;;;;4.07;1.55;;;8.80;99.90;;;;;;5046351;28;20044;-41
2023/01/08 03:56:37;;;;;;;4.47;1.83;;;8.80;99.90;;;;;;5043079;28;20120;-37
2023/01/08 03:59:03;;;;;;;3.33;1.58;;;8.80;99.90;;;;;;5045682;28;20112;-37
2023/01/08 04:01:29;;;;;;;3.20;1.45;;;8.80;99.90;;;;;;5045339;28;20041;-37
2023/01/08 04:03:54;;;;;;;3.08;1.35;;;8.80;99.90;;;;;;5028434;28;20506;-37
2023/01/08 04:06:20;;;;;;;4.43;1.30;;;8.80;99.90;;;;;;5047681;28;20445;-38
2023/01/08 04:08:49;;;;;;;1.98;1.00;;;8.80;99.90;;;;;;5045949;28;20036;-37
2023/01/08 04:11:15;;;;;;;3.35;1.17;;;8.80;99.90;;;;;;5050777;28;20040;-36
2023/01/08 04:13:40;;;;;;;2.60;0.93;;;8.80;99.90;;;;;;5044910;28;20123;-54
2023/01/08 04:16:07;;;;;;;3.38;1.00;;;8.80;99.90;;;;;;5047467;28;20068;-36
2023/01/08 04:18:32;;;;;;;2.92;1.10;;;8.80;99.90;;;;;;5043760;28;20045;-38
2023/01/08 04:20:58;;;;;;;1.88;0.93;;;8.80;99.90;;;;;;5047975;28;20110;-41
2023/01/08 04:23:25;;;;;;;2.90;1.13;;;8.80;99.90;;;;;;5046291;28;20041;-37
2023/01/08 04:25:51;;;;;;;3.25;0.90;;;8.80;99.90;;;;;;5046579;28;20090;-36
2023/01/08 04:28:16;;;;;;;3.65;0.90;;;8.80;99.90;;;;;;5047279;28;20025;-37
2023/01/08 04:30:42;;;;;;;3.42;1.05;;;8.80;99.90;;;;;;5029655;28;20033;-37
2023/01/08 04:33:08;;;;;;;5.97;1.00;;;8.80;99.90;;;;;;5042572;28;20438;-36
2023/01/08 04:35:33;;;;;;;3.20;0.77;;;8.80;99.90;;;;;;5041882;28;20041;-37
2023/01/08 04:37:59;;;;;;;3.45;1.13;;;8.80;99.90;;;;;;5042727;28;20040;-36
2023/01/08 04:40:25;;;;;;;3.13;1.00;;;8.70;99.90;;;;;;5047999;28;20032;-36
2023/01/08 04:42:51;;;;;;;3.47;0.88;;;8.80;99.90;;;;;;5047202;28;20128;-36
2023/01/08 04:45:17;;;;;;;3.25;0.90;;;8.70;99.90;;;;;;5052320;28;20127;-35
2023/01/08 04:47:43;;;;;;;1.92;0.63;;;8.70;99.90;;;;;;5042594;28;20163;-37
2023/01/08 04:50:09;;;;;;;2.30;0.75;;;8.70;99.90;;;;;;5044685;28;20575;-37
2023/01/08 04:52:34;;;;;;;2.88;0.80;;;8.60;99.90;;;;;;5044067;28;20102;-38
2023/01/08 04:55:00;;;;;;;2.28;0.80;;;8.60;99.90;;;;;;5047047;28;20537;-36
2023/01/08 04:57:26;;;;;;;1.90;0.70;;;8.60;99.90;;;;;;5047200;28;20040;-35
2023/01/08 04:59:51;;;;;;;2.63;0.80;;;8.60;99.90;;;;;;5046586;28;20044;-35
2023/01/08 05:02:17;;;;;;;3.08;0.88;;;8.60;99.90;;;;;;5044729;28;20091;-40
2023/01/08 05:04:43;;;;;;;2.10;0.60;;;8.60;99.90;;;;;;5046684;28;20033;-35
2023/01/08 05:07:09;;;;;;;2.90;0.80;;;8.60;99.90;;;;;;5043031;28;20036;-35
2023/01/08 05:09:35;;;;;;;2.92;0.80;;;8.60;99.90;;;;;;5049218;28;20029;-35
2023/01/08 05:12:00;;;;;;;1.92;0.80;;;8.50;99.90;;;;;;5045252;28;20040;-35
2023/01/08 05:14:26;;;;;;;4.32;1.10;;;8.50;99.90;;;;;;5047984;28;20550;-35
2023/01/08 05:16:52;;;;;;;6.20;1.23;;;8.50;99.90;;;;;;5046245;28;20033;-39
2023/01/08 05:19:17;;;;;;;3.00;1.30;;;8.50;99.90;;;;;;5018887;28;20164;-36
2023/01/08 05:21:43;;;;;;;4.03;0.90;;;8.50;99.90;;;;;;5042676;28;20044;-35
2023/01/08 05:24:09;;;;;;;2.85;1.23;;;8.40;99.90;;;;;;5039919;28;20222;-36
2023/01/08 05:26:34;;;;;;;5.50;1.20;;;8.40;99.90;;;;;;5045144;28;20429;-42
2023/01/08 05:29:00;;;;;;;2.58;1.10;;;8.40;99.90;;;;;;5046010;28;20084;-36
2023/01/08 05:31:26;;;;;;;4.00;1.50;;;8.50;99.90;;;;;;5037485;28;20087;-35
2023/01/08 05:33:51;;;;;;;3.85;1.20;;;8.40;99.90;;;;;;5046483;28;20064;-35
2023/01/08 05:36:17;;;;;;;3.72;1.30;;;8.40;99.90;;;;;;5048899;28;20123;-35
2023/01/08 05:38:43;;;;;;;2.97;1.20;;;8.40;99.90;;;;;;5048397;28;20048;-36
2023/01/08 05:41:10;;;;;;;4.68;1.38;;;8.30;99.90;;;;;;5046316;28;20037;-36
2023/01/08 05:43:36;;;;;;;4.10;1.25;;;8.40;99.90;;;;;;5047415;28;20072;-35
2023/01/08 05:46:03;;;;;;;5.68;1.20;;;8.30;99.90;;;;;;5046955;28;20482;-37
2023/01/08 05:48:30;;;;;;;4.22;1.48;;;8.30;99.90;;;;;;5042597;28;20041;-35
2023/01/08 05:50:56;;;;;;;4.28;1.42;;;8.30;99.90;;;;;;5050471;28;20132;-35
2023/01/08 05:53:21;;;;;;;2.75;1.05;;;8.20;99.90;;;;;;5050890;28;20060;-35
2023/01/08 05:55:47;;;;;;;2.55;0.98;;;8.20;99.90;;;;;;5048425;28;20052;-36
2023/01/08 05:58:13;;;;;;;3.65;1.30;;;8.20;99.90;;;;;;5045456;28;20093;-36
2023/01/08 06:00:39;;;;;;;3.17;1.33;;;8.10;99.90;;;;;;5046388;28;20033;-36
2023/01/08 06:03:04;;;;;;;5.03;1.20;;;8.10;99.90;;;;;;5043875;28;20040;-35
2023/01/08 06:05:31;;;;;;;5.05;1.38;;;8.10;99.90;;;;;;5049843;28;20045;-44
2023/01/08 06:07:58;;;;;;;3.33;1.88;;;8.10;99.90;;;;;;5048016;28;20040;-36
2023/01/08 06:10:25;;;;;;;2.92;1.13;;;8.10;99.90;;;;;;5048817;28;20486;-35
2023/01/08 06:12:51;;;;;;;3.42;1.10;;;8.10;99.90;;;;;;5050434;28;20079;-38
2023/01/08 06:15:16;;;;;;;4.13;1.10;;;8.10;99.90;;;;;;5049819;28;20037;-35
2023/01/08 06:17:43;;;;;;;5.20;0.98;;;8.10;99.90;;;;;;5036133;28;20422;-36
2023/01/08 06:20:09;;;;;;;1.23;0.57;;;8.10;99.90;;;;;;5049107;28;20041;-36
2023/01/08 06:22:35;;;;;;;5.50;1.35;;;8.20;99.90;;;;;;5047987;28;20040;-37
2023/01/08 06:25:01;;;;;;;2.85;1.00;;;8.20;99.90;;;;;;5049318;28;21662;-36
2023/01/08 06:27:27;;;;;;;2.63;0.60;;;8.30;99.90;;;;;;5044363;28;20049;-38
2023/01/08 06:29:53;;;;;;;3.40;0.70;;;8.30;99.90;;;;;;5044583;28;20513;-36
2023/01/08 06:32:19;;;;;;;3.30;0.80;;;8.20;99.90;;;;;;5045427;28;20041;-36
2023/01/08 06:34:44;;;;;;;2.63;0.45;;;8.20;99.90;;;;;;5047977;28;20037;-36
2023/01/08 06:37:10;;;;;;;5.13;0.50;;;8.20;99.90;;;;;;5045386;28;20037;-38
2023/01/08 06:39:36;;;;;;;5.07;0.80;;;8.10;99.90;;;;;;5030489;28;20056;-36
2023/01/08 06:42:01;;;;;;;3.03;0.70;;;8.10;99.90;;;;;;5048938;28;20438;-39
2023/01/08 06:44:27;;;;;;;4.90;0.63;;;8.10;99.90;;;;;;5048568;28;20443;-37
2023/01/08 06:46:53;;;;;;;4.25;0.57;;;8.10;99.90;;;;;;5046430;28;20060;-36
2023/01/08 06:49:19;;;;;;;3.15;0.50;;;8.10;99.90;;;;;;5048174;28;20029;-37
2023/01/08 06:51:45;;;;;;;3.58;0.77;;;8.00;99.90;;;;;;5048868;28;20079;-40
2023/01/08 06:54:10;;;;;;;3.10;0.47;;;8.00;99.90;;;;;;5042077;28;20049;-35
2023/01/08 06:56:36;;;;;;;3.83;1.15;;;8.00;99.90;;;;;;5048381;28;20525;-35
2023/01/08 06:59:02;;;;;;;4.80;0.82;;;8.00;99.90;;;;;;5047202;28;20056;-35
2023/01/08 07:01:27;;;;;;;3.88;0.60;;;7.90;99.90;;;;;;5045348;28;20037;-36
2023/01/08 07:03:54;;;;;;;5.10;0.50;;;7.80;99.90;;;;;;5045012;28;20099;-36
2023/01/08 07:06:21;;;;;;;8.05;0.90;;;7.80;99.90;;;;;;5048545;28;20033;-36
2023/01/08 07:08:47;;;;;;;2.42;0.43;;;7.70;99.90;;;;;;5043855;28;20044;-37
2023/01/08 07:11:14;;;;;;;4.68;0.65;;;7.70;99.90;;;;;;5046087;28;20498;-36
2023/01/08 07:13:40;;;;;;;3.05;0.40;;;7.60;99.90;;;;;;5031158;28;20120;-36
2023/01/08 07:16:11;;;;;;;3.63;0.70;;;7.50;99.90;;;;;;5030256;28;20554;-36
2023/01/08 07:18:37;;;;;;;1.83;0.68;;;7.50;99.90;;;;;;5043840;28;20033;-36
2023/01/08 07:21:04;;;;;;;1.85;0.50;;;7.40;99.90;;;;;;5049142;28;20104;-35
2023/01/08 07:23:30;;;;;;;3.10;0.52;;;7.40;99.90;;;;;;5028395;28;20083;-47
2023/01/08 07:26:00;;;;;;;2.63;0.60;;;7.30;99.90;;;;;;5046160;28;20391;-35
2023/01/08 07:28:26;;;;;;;4.43;0.82;;;7.30;99.90;;;;;;5049100;28;20491;-37
2023/01/08 07:30:52;;;;;;;4.38;0.85;;;7.20;99.90;;;;;;5048639;28;20594;-36
2023/01/08 07:33:18;;;;;;;4.72;0.80;;;7.20;99.90;;;;;;5046622;28;20048;-36
2023/01/08 07:35:49;;;;;;;3.85;0.70;;;7.10;99.90;;;;;;5048848;28;20120;-35
2023/01/08 07:38:15;;;;;;;1.50;0.50;;;7.10;99.90;;;;;;5046470;28;20045;-36
2023/01/08 07:40:41;;;;;;;8.13;0.80;;;7.00;99.90;;;;;;5046420;28;20413;-36
2023/01/08 07:43:08;;;;;;;4.00;0.80;;;7.00;99.90;;;;;;5043885;28;20041;-39
2023/01/08 07:45:34;;;;;;;3.40;0.70;;;7.00;99.90;;;;;;5048351;28;20047;-37
2023/01/08 07:48:00;;;;;;;3.03;0.60;;;6.90;99.90;;;;;;5025668;28;20036;-36
2023/01/08 07:50:26;;;;;;;4.40;0.80;;;6.90;99.90;;;;;;5045933;28;20033;-35
2023/01/08 07:52:52;;;;;;;5.25;0.80;;;6.90;99.90;;;;;;5046782;28;20115;-37
2023/01/08 07:55:17;;;;;;;3.33;0.77;;;6.90;99.90;;;;;;5040019;28;20037;-36
2023/01/08 07:57:43;;;;;;;5.18;0.90;;;6.90;99.90;;;;;;5045885;28;20402;-37
2023/01/08 08:00:09;;;;;;;3.47;0.90;;;6.90;99.90;;;;;;5043842;28;20053;-37
2023/01/08 08:02:35;;;;;;;1.40;0.43;;;6.90;99.90;;;;;;5046363;28;20176;-36
2023/01/08 08:05:01;;;;;;;4.57;0.80;;;6.80;99.90;;;;;;5041924;28;20032;-36
2023/01/08 08:07:30;;;;;;;4.28;0.73;;;6.80;99.90;;;;;;5046605;28;20045;-39
2023/01/08 08:09:55;;;;;;;3.70;0.50;;;6.80;99.90;;;;;;5043026;28;20036;-36
2023/01/08 08:12:21;;;;;;;3.67;0.70;;;6.80;99.90;;;;;;5049234;28;20035;-37
2023/01/08 08:14:47;;;;;;;5.47;0.50;;;6.80;99.90;;;;;;5048166;28;20040;-35
2023/01/08 08:17:12;;;;;;;4.70;0.63;;;6.80;99.90;;;;;;5044252;28;20037;-36
2023/01/08 08:19:40;;;;;;;2.95;0.45;;;6.80;99.90;;;;;;5046666;28;20420;-36
2023/01/08 08:22:06;;;;;;;1.65;0.50;;;6.80;99.90;;;;;;5041512;28;20045;-36
2023/01/08 08:24:31;;;;;;;4.13;1.48;;;6.80;99.90;;;;;;5048333;28;20047;-37
2023/01/08 08:26:57;;;;;;;3.63;0.40;;;6.80;99.90;;;;;;5046722;28;20037;-37
2023/01/08 08:29:22;;;;;;;3.20;0.50;;;6.80;99.90;;;;;;5044219;28;20032;-38
2023/01/08 08:31:48;;;;;;;4.50;0.75;;;6.80;99.90;;;;;;5036458;28;20036;-38
2023/01/08 08:34:14;;;;;;;4.18;0.68;;;6.80;99.90;;;;;;5043433;28;24660;-37
2023/01/08 08:36:40;;;;;;;4.05;0.77;;;6.90;99.90;;;;;;5050930;28;20386;-37
2023/01/08 08:39:05;;;;;;;2.45;0.80;;;6.90;99.90;;;;;;5042243;28;20036;-37
2023/01/08 08:41:31;;;;;;;3.67;0.75;;;6.90;99.90;;;;;;5037721;28;20031;-42
2023/01/08 08:43:57;;;;;;;1.77;0.50;;;6.90;99.90;;;;;;5038133;28;20037;-38
2023/01/08 08:46:24;;;;;;;3.63;0.40;;;6.90;99.90;;;;;;5046096;28;20386;-37
2023/01/08 08:48:50;;;;;;;3.35;0.50;;;6.90;99.90;;;;;;5043094;28;20033;-37
2023/01/08 08:51:15;;;;;;;2.15;0.60;;;6.90;99.90;;;;;;5049155;28;20032;-37
2023/01/08 08:53:41;;;;;;;3.72;0.65;;;6.90;99.90;;;;;;5046705;28;20044;-37
2023/01/08 08:56:07;;;;;;;2.08;0.45;;;6.90;99.90;;;;;;5048066;28;20051;-38
2023/01/08 08:58:32;;;;;;;3.50;0.52;;;6.90;99.90;;;;;;5043088;28;20044;-37
2023/01/08 09:01:02;;;;;;;3.67;1.00;;;7.00;99.90;;;;;;5047056;28;20037;-38
2023/01/08 09:03:29;;;;;;;2.03;0.57;;;7.00;99.90;;;;;;5041549;28;20123;-39
2023/01/08 09:05:54;;;;;;;5.38;0.90;;;7.00;99.90;;;;;;5047049;28;20623;-38
2023/01/08 09:08:20;;;;;;;2.38;0.47;;;7.00;99.90;;;;;;5053920;28;20037;-36
2023/01/08 09:10:46;;;;;;;7.95;0.60;;;7.00;99.90;;;;;;5053510;28;20037;-37
2023/01/08 09:13:12;;;;;;;2.38;0.80;;;7.10;99.90;;;;;;5048777;28;20096;-38
2023/01/08 09:15:37;;;;;;;6.03;0.70;;;7.10;99.90;;;;;;5053577;28;20064;-37
2023/01/08 09:18:04;;;;;;;3.17;0.80;;;7.10;99.90;;;;;;5054046;28;20497;-37
2023/01/08 09:20:30;;;;;;;3.55;0.52;;;7.20;99.90;;;;;;5044483;28;20041;-37
2023/01/08 09:22:59;;;;;;;3.92;0.57;;;7.20;99.90;;;;;;5048872;28;20067;-37
2023/01/08 09:25:25;;;;;;;5.10;0.95;;;7.20;99.90;;;;;;5048917;28;20083;-38
2023/01/08 09:28:04;;;;;;;3.67;0.73;;;7.30;99.90;;;;;;5032779;28;20042;-39
2023/01/08 09:30:30;;;;;;;2.55;0.50;;;7.40;99.90;;;;;;5052012;28;20083;-37
2023/01/08 09:33:00;;;;;;;8.35;1.30;;;7.40;99.90;;;;;;5051911;28;20490;-37
2023/01/08 09:35:26;;;;;;;3.28;0.50;;;7.40;99.90;;;;;;5052237;28;20044;-37
2023/01/08 09:37:54;;;;;;;2.25;0.40;;;7.40;99.90;;;;;;5049416;28;20041;-37
2023/01/08 09:40:27;;;;;;;4.13;0.63;;;7.50;99.90;;;;;;5052642;28;20076;-37
2023/01/08 09:43:01;;;;;;;7.20;0.65;;;7.60;99.90;;;;;;5051390;28;20041;-37
2023/01/08 09:45:29;;;;;;;3.92;0.50;;;7.60;99.90;;;;;;5051701;28;20075;-37
2023/01/08 09:47:58;;;;;;;5.78;0.93;;;7.70;99.90;;;;;;5048775;28;20043;-38
2023/01/08 09:50:26;;;;;;;2.78;0.50;;;7.70;99.90;;;;;;5048362;28;20029;-37
2023/01/08 09:52:52;;;;;;;4.13;0.52;;;7.80;99.90;;;;;;5045398;28;20107;-37
2023/01/08 09:55:19;;;;;;;4.35;0.50;;;7.80;99.90;;;;;;5052343;28;20116;-37
2023/01/08 09:57:46;;;;;;;6.05;0.50;;;7.90;99.90;;;;;;5055369;28;20060;-37
2023/01/08 10:00:20;;;;;;;6.70;0.40;;;7.90;99.90;;;;;;5047948;28;20036;-37
2023/01/08 10:02:47;;;;;;;4.38;0.93;;;7.90;99.90;;;;;;5047664;28;20614;-38
2023/01/08 10:05:15;;;;;;;3.92;0.60;;;7.90;99.90;;;;;;5044905;28;20095;-37
2023/01/08 10:07:42;;;;;;;4.18;0.32;;;8.00;99.90;;;;;;5050655;28;20111;-37
2023/01/08 10:10:29;;;;;;;8.75;0.73;;;8.00;99.90;;;;;;5050640;28;20037;-37
2023/01/08 10:12:55;;;;;;;3.60;0.77;;;8.10;99.90;;;;;;5051734;28;20047;-37
2023/01/08 10:15:22;;;;;;;6.18;0.73;;;8.10;99.90;;;;;;5052119;28;20040;-38
2023/01/08 10:18:02;;;;;;;7.30;1.17;;;8.20;99.90;;;;;;5048538;28;20041;-45
2023/01/08 10:20:28;;;;;;;4.63;0.52;;;8.20;99.90;;;;;;5049972;28;20517;-37
2023/01/08 10:22:55;;;;;;;6.78;0.95;;;8.30;99.90;;;;;;5047177;28;20144;-36
2023/01/08 10:25:26;;;;;;;6.03;0.73;;;8.30;99.90;;;;;;5045231;28;20047;-37
2023/01/08 10:27:57;;;;;;;6.78;0.77;;;8.30;99.90;;;;;;5045621;28;20029;-36
2023/01/08 10:30:34;;;;;;;3.00;0.50;;;8.40;99.90;;;;;;5046825;28;20044;-37
2023/01/08 10:33:29;;;;;;;3.00;0.63;;;8.40;99.90;;;;;;5036644;28;20049;-37
2023/01/08 10:36:00;;;;;;;4.53;0.43;;;8.40;99.90;;;;;;5045785;28;20419;-36
2023/01/08 10:38:30;;;;;;;3.25;0.50;;;8.50;99.90;;;;;;5044496;28;20080;-36
2023/01/08 10:40:56;;;;;;;7.20;0.70;;;8.60;99.90;;;;;;5041918;28;20044;-36
2023/01/08 10:43:34;;;;;;;5.20;0.80;;;8.60;99.90;;;;;;5038012;28;20099;-39
2023/01/08 10:46:03;;;;;;;3.25;0.65;;;8.60;99.90;;;;;;5040879;28;20076;-37
2023/01/08 10:48:43;;;;;;;5.32;0.40;;;8.70;99.90;;;;;;5047610;28;20041;-36
2023/01/08 10:51:19;;;;;;;3.10;0.60;;;8.70;99.90;;;;;;5039558;28;20490;-40
2023/01/08 10:53:44;;;;;;;5.90;1.40;;;8.80;99.90;;;;;;5044963;28;20369;-36
2023/01/08 10:56:41;;;;;;;6.05;1.80;;;9.00;99.90;;;;;;5045011;28;20549;-37
2023/01/08 10:59:21;;;;;;;3.33;0.32;;;8.90;99.90;;;;;;5028242;28;20254;-37
2023/01/08 11:01:49;;;;;;;6.47;0.70;;;9.00;99.90;;;;;;5041481;28;20041;-40
2023/01/08 11:04:31;;;;;;;5.18;0.70;;;9.40;99.90;;;;;;5035818;28;20530;-36
2023/01/08 11:07:00;;;;;;;7.40;0.80;;;9.50;99.90;;;;;;5042607;28;20482;-36
2023/01/08 11:09:34;;;;;;;3.88;0.68;;;9.40;99.90;;;;;;5048132;28;20126;-35
2023/01/08 11:12:00;;;;;;;4.25;0.70;;;9.60;99.90;;;;;;5045745;28;20557;-35
2023/01/08 11:14:35;;;;;;;5.90;1.23;;;9.60;99.90;;;;;;5045838;28;20116;-39
2023/01/08 11:17:08;;;;;;;5.38;0.85;;;9.60;99.90;;;;;;5041696;28;20037;-41
2023/01/08 11:19:34;;;;;;;7.82;1.17;;;9.60;99.90;;;;;;5046756;28;20041;-37
2023/01/08 11:22:03;;;;;;;5.82;0.70;;;9.60;99.90;;;;;;5032122;28;20090;-36
2023/01/08 11:24:34;;;;;;;4.22;0.82;;;10.00;99.90;;;;;;5043173;28;20573;-37
2023/01/08 11:27:03;;;;;;;3.53;0.80;;;10.40;99.90;;;;;;5047649;28;20041;-36
2023/01/08 11:29:32;;;;;;;5.78;0.93;;;10.40;99.90;;;;;;5049721;28;20234;-36
2023/01/08 11:32:26;;;;;;;7.90;0.80;;;10.30;99.90;;;;;;5048557;28;20055;-36
2023/01/08 11:35:20;;;;;;;3.45;0.63;;;10.70;99.90;;;;;;5044978;28;20052;-37
2023/01/08 11:37:57;;;;;;;6.47;0.90;;;11.00;99.90;;;;;;5043218;28;20044;-39
2023/01/08 11:40:48;;;;;;;6.97;1.73;;;10.70;99.90;;;;;;5028557;28;20047;-38
2023/01/08 11:43:24;;;;;;;2.25;0.47;;;10.80;99.90;;;;;;5043631;28;20045;-36
2023/01/08 11:46:18;;;;;;;6.60;0.88;;;10.80;99.90;;;;;;5046376;28;20043;-39
2023/01/08 11:49:21;;;;;;;8.50;0.77;;;10.70;99.90;;;;;;5043514;28;20508;-36
2023/01/08 11:52:24;;;;;;;8.13;1.03;;;11.10;99.90;;;;;;5033004;28;20053;-41
2023/01/08 11:55:23;;;;;;;5.05;0.88;;;11.60;99.90;;;;;;5041268;28;20119;-39
2023/01/08 11:57:57;;;;;;;5.07;0.77;;;11.40;99.90;;;;;;5038311;28;20029;-37
2023/01/08 12:00:57;;;;;;;6.18;0.90;;;11.30;99.90;;;;;;5040562;28;20144;-37
2023/01/08 12:03:35;;;;;;;6.70;0.77;;;11.00;99.90;;;;;;5034313;28;20055;-39
2023/01/08 12:06:27;;;;;;;7.13;0.90;;;11.00;99.90;;;;;;5034643;28;20037;-36
2023/01/08 12:09:01;;;;;;;7.03;0.70;;;10.80;99.90;;;;;;5043368;28;20033;-37
2023/01/08 12:11:52;;;;;;;7.18;1.00;;;10.80;99.90;;;;;;5045847;28;20046;-39
2023/01/08 12:14:27;;;;;;;7.10;1.10;;;10.80;99.90;;;;;;5041815;28;20469;-36
2023/01/08 12:17:00;;;;;;;10.60;1.05;;;10.70;99.90;;;;;;5041114;28;20111;-37
2023/01/08 12:19:35;;;;;;;4.70;0.88;;;10.80;99.90;;;;;;5028451;28;20116;-36
2023/01/08 12:22:26;;;;;;;2.67;0.80;;;11.40;99.90;;;;;;5040713;28;20116;-35
2023/01/08 12:25:16;;;;;;;7.00;1.35;;;12.00;99.90;;;;;;5040001;28;20045;-36
2023/01/08 12:28:07;;;;;;;3.95;0.70;;;12.60;99.90;;;;;;5039428;28;20048;-38
2023/01/08 12:30:32;;;;;;;3.78;0.60;;;13.10;98.40;;;;;;5035342;28;20044;-36
2023/01/08 12:33:19;;;;;;;5.60;0.70;;;13.20;98.50;;;;;;5044552;28;20041;-36
2023/01/08 12:35:49;;;;;;;3.97;0.52;;;13.50;97.90;;;;;;5023515;28;20060;-38
2023/01/08 12:38:26;;;;;;;5.07;0.63;;;13.70;97.20;;;;;;5040708;28;20048;-44
2023/01/08 12:40:57;;;;;;;4.90;1.13;;;13.80;94.90;;;;;;5039532;28;20049;-37
2023/01/08 12:43:38;;;;;;;5.25;0.70;;;13.70;95.80;;;;;;5046910;28;20043;-39
2023/01/08 12:46:05;;;;;;;3.25;0.63;;;13.80;95.70;;;;;;5040910;28;20067;-41
2023/01/08 12:48:35;;;;;;;3.95;0.60;;;14.10;95.50;;;;;;5042911;28;20045;-36
2023/01/08 12:51:18;;;;;;;4.38;0.70;;;14.10;94.20;;;;;;5042068;28;20052;-36
2023/01/08 12:54:06;;;;;;;4.22;0.70;;;14.20;93.10;;;;;;5046450;28;20060;-36
2023/01/08 12:57:06;;;;;;;5.03;0.50;;;14.30;92.10;;;;;;5043957;28;20056;-37
2023/01/08 12:59:59;;;;;;;4.78;0.60;;;14.40;92.70;;;;;;5017959;28;20605;-38
2023/01/08 13:02:46;;;;;;;2.28;0.52;;;14.80;92.30;;;;;;5033406;28;20505;-38
2023/01/08 13:05:34;;;;;;;4.00;0.60;;;15.10;87.20;;;;;;5043592;28;20045;-37
2023/01/08 13:08:07;;;;;;;4.95;0.50;;;15.00;90.20;;;;;;5041891;28;20124;-36
2023/01/08 13:10:59;;;;;;;1.27;0.35;;;15.10;91.40;;;;;;5040701;28;20041;-37
2023/01/08 13:13:38;;;;;;;4.85;0.70;;;14.60;86.10;;;;;;5039853;28;20059;-38
2023/01/08 13:16:17;;;;;;;3.20;0.60;;;13.90;91.20;;;;;;5039472;28;20043;-41